Terminal Aerodrome Forecast
Issued by NWS

Home | Current Version | Previous Version | Text Only | Print | Product List | Glossary Off
Versions: 1 2 3 4 5 6 7 8 9 10 11 12 13 14 15 16 17 18 19 20 21 22 23 24 25 26 27 28

000
FTUS43 KLOT 290527
TAFDPA
TAF
KDPA 290527Z 2906/3006 20010KT P6SM VCSH SCT045 BKN110
     FM290700 20009KT P6SM SCT100 BKN250
     FM291500 24014G22KT P6SM FEW045 SCT250
     FM292100 27014G22KT P6SM FEW060
     FM300200 24006KT P6SM SKC=

USA.gov is the U.S. government's official web portal to all federal, state and local government web resources and services.